Time;durP1;ratioP1;P1;durP2;ratioP2;P2;SDS_P1;SDS_P2;PMS_P1;PMS_P2;Temp;Humidity;BMP_temperature;BMP_pressure;BME280_temperature;BME280_humidity;BME280_pressure;Samples;Min_cycle;Max_cycle;Signal;HPM_P1;HPM_P2
2023/05/14 00:00:13;;;;;;;;;;;;;;;;;;5073822;28;20300;-78
2023/05/14 00:02:41;;;;;;;;;;;;;;;;;;5103085;28;19920;-78
2023/05/14 00:05:08;;;;;;;;;;;;;;;;;;5080444;28;19927;-76
2023/05/14 00:07:36;;;;;;;;;;;;;;;;;;5083537;28;19927;-76
2023/05/14 00:10:04;;;;;;;;;;;;;;;;;;5086340;28;19920;-77
2023/05/14 00:12:31;;;;;;;;;;;;;;;;;;5091432;28;19927;-76
2023/05/14 00:14:59;;;;;;;;;;;;;;;;;;5077381;28;19927;-77
2023/05/14 00:17:27;;;;;;;;;;;;;;;;;;5092478;28;19920;-76
2023/05/14 00:19:54;;;;;;;;;;;;;;;;;;5089132;28;19990;-76
2023/05/14 00:22:22;;;;;;;;;;;;;;;;;;5081738;28;19928;-76
2023/05/14 00:24:54;;;;;;;;;;;;;;;;;;5089170;28;19927;-76
2023/05/14 00:27:22;;;;;;;;;;;;;;;;;;5079726;28;19920;-77
2023/05/14 00:29:49;;;;;;;;;;;;;;;;;;5084243;28;19920;-78
2023/05/14 00:32:22;;;;;;;;;;;;;;;;;;5073974;28;19927;-76
2023/05/14 00:34:49;;;;;;;;;;;;;;;;;;5088668;28;19920;-76
2023/05/14 00:37:22;;;;;;;;;;;;;;;;;;5081851;28;19927;-78
2023/05/14 00:39:49;;;;;;;;;;;;;;;;;;5076224;28;19927;-76
2023/05/14 00:42:17;;;;;;;;;;;;;;;;;;5084435;28;19928;-76
2023/05/14 00:44:44;;;;;;;;;;;;;;;;;;5081065;28;19935;-76
2023/05/14 00:47:12;;;;;;;;;;;;;;;;;;5080470;28;19947;-77
2023/05/14 00:49:40;;;;;;;;;;;;;;;;;;5085372;28;19920;-77
2023/05/14 00:52:07;;;;;;;;;;;;;;;;;;5075473;28;19920;-76
2023/05/14 00:54:35;;;;;;;;;;;;;;;;;;5075938;28;19927;-77
2023/05/14 00:57:02;;;;;;;;;;;;;;;;;;5086379;28;19920;-76
2023/05/14 00:59:35;;;;;;;;;;;;;;;;;;5073181;28;20349;-76
2023/05/14 01:02:02;;;;;;;;;;;;;;;;;;5087663;28;19927;-76
2023/05/14 01:04:30;;;;;;;;;;;;;;;;;;5080108;28;19928;-77
2023/05/14 01:06:57;;;;;;;;;;;;;;;;;;5088220;28;20391;-76
2023/05/14 01:09:25;;;;;;;;;;;;;;;;;;5071653;28;19920;-76
2023/05/14 01:11:58;;;;;;;;;;;;;;;;;;5083892;28;20304;-78
2023/05/14 01:14:26;;;;;;;;;;;;;;;;;;5078817;28;19920;-77
2023/05/14 01:16:53;;;;;;;;;;;;;;;;;;5091024;28;19930;-77
2023/05/14 01:19:21;;;;;;;;;;;;;;;;;;5087939;28;19928;-76
2023/05/14 01:21:48;;;;;;;;;;;;;;;;;;5080802;28;19928;-76
2023/05/14 01:24:16;;;;;;;;;;;;;;;;;;5076593;28;19920;-76
2023/05/14 01:26:44;;;;;;;;;;;;;;;;;;5071654;28;20264;-77
2023/05/14 01:29:12;;;;;;;;;;;;;;;;;;5076199;28;19924;-78
2023/05/14 01:31:39;;;;;;;;;;;;;;;;;;5086572;28;20296;-77
2023/05/14 01:34:07;;;;;;;;;;;;;;;;;;5078782;28;19927;-77
2023/05/14 01:36:39;;;;;;;;;;;;;;;;;;5084035;28;19932;-77
2023/05/14 01:39:08;;;;;;;;;;;;;;;;;;5090648;28;19920;-77
2023/05/14 01:41:35;;;;;;;;;;;;;;;;;;5072432;28;20270;-77
2023/05/14 01:44:03;;;;;;;;;;;;;;;;;;5095365;28;19920;-76
2023/05/14 01:46:30;;;;;;;;;;;;;;;;;;5074452;28;19927;-76
2023/05/14 01:48:58;;;;;;;;;;;;;;;;;;5082713;28;19920;-76
2023/05/14 01:51:25;;;;;;;;;;;;;;;;;;5073366;28;19931;-77
2023/05/14 01:53:58;;;;;;;;;;;;;;;;;;5078213;28;19927;-76
2023/05/14 01:56:25;;;;;;;;;;;;;;;;;;5083736;28;19920;-78
2023/05/14 01:58:54;;;;;;;;;;;;;;;;;;5092296;28;19920;-77
2023/05/14 02:01:22;;;;;;;;;;;;;;;;;;5076486;28;19931;-76
2023/05/14 02:03:50;;;;;;;;;;;;;;;;;;5087124;28;19920;-76
2023/05/14 02:06:17;;;;;;;;;;;;;;;;;;5087460;28;19920;-76
2023/05/14 02:08:45;;;;;;;;;;;;;;;;;;5086934;28;19925;-76
2023/05/14 02:11:12;;;;;;;;;;;;;;;;;;5091762;28;19932;-77
2023/05/14 02:13:45;;;;;;;;;;;;;;;;;;5095199;28;19920;-76
2023/05/14 02:16:12;;;;;;;;;;;;;;;;;;5077360;28;19924;-77
2023/05/14 02:18:40;;;;;;;;;;;;;;;;;;5090431;28;19920;-76
2023/05/14 02:21:07;;;;;;;;;;;;;;;;;;5089348;28;19920;-76
2023/05/14 02:23:35;;;;;;;;;;;;;;;;;;5082803;28;20372;-78
2023/05/14 02:26:08;;;;;;;;;;;;;;;;;;5074647;28;20384;-76
2023/05/14 02:28:40;;;;;;;;;;;;;;;;;;5078160;28;20523;-78
2023/05/14 02:31:08;;;;;;;;;;;;;;;;;;5078823;28;19927;-77
2023/05/14 02:33:35;;;;;;;;;;;;;;;;;;5082518;28;19921;-76
2023/05/14 02:36:03;;;;;;;;;;;;;;;;;;5086832;28;19927;-76
2023/05/14 02:38:30;;;;;;;;;;;;;;;;;;5087087;28;19920;-76
2023/05/14 02:40:58;;;;;;;;;;;;;;;;;;5080763;28;19920;-76
2023/05/14 02:43:25;;;;;;;;;;;;;;;;;;5085122;28;19931;-77
2023/05/14 02:45:53;;;;;;;;;;;;;;;;;;5088352;28;19919;-76
2023/05/14 02:48:20;;;;;;;;;;;;;;;;;;5092696;28;19924;-76
2023/05/14 02:50:53;;;;;;;;;;;;;;;;;;5093825;28;20276;-77
2023/05/14 02:53:20;;;;;;;;;;;;;;;;;;5083017;28;19927;-77
2023/05/14 02:55:48;;;;;;;;;;;;;;;;;;5081590;28;19920;-75
2023/05/14 02:58:15;;;;;;;;;;;;;;;;;;5087555;28;19921;-76
2023/05/14 03:00:43;;;;;;;;;;;;;;;;;;5079127;28;20245;-77
2023/05/14 03:03:10;;;;;;;;;;;;;;;;;;5078375;28;20387;-76
2023/05/14 03:05:38;;;;;;;;;;;;;;;;;;5090569;28;19927;-76
2023/05/14 03:08:05;;;;;;;;;;;;;;;;;;5078324;28;20376;-76
2023/05/14 03:10:33;;;;;;;;;;;;;;;;;;5082597;28;19925;-76
2023/05/14 03:13:00;;;;;;;;;;;;;;;;;;5091596;28;19954;-76
2023/05/14 03:15:33;;;;;;;;;;;;;;;;;;5083053;28;20296;-77
2023/05/14 03:18:01;;;;;;;;;;;;;;;;;;5079948;28;20297;-76
2023/05/14 03:20:28;;;;;;;;;;;;;;;;;;5100859;28;20369;-76
2023/05/14 03:22:56;;;;;;;;;;;;;;;;;;5090807;28;20304;-76
2023/05/14 03:25:24;;;;;;;;;;;;;;;;;;5083334;28;19927;-78
2023/05/14 03:27:51;;;;;;;;;;;;;;;;;;5079258;28;19920;-78
2023/05/14 03:30:19;;;;;;;;;;;;;;;;;;5085318;28;20360;-76
2023/05/14 03:32:47;;;;;;;;;;;;;;;;;;5082916;28;19939;-76
2023/05/14 03:35:15;;;;;;;;;;;;;;;;;;5081604;28;19920;-76
2023/05/14 03:37:42;;;;;;;;;;;;;;;;;;5088244;28;19920;-76
2023/05/14 03:40:10;;;;;;;;;;;;;;;;;;5089034;28;19931;-76
2023/05/14 03:42:37;;;;;;;;;;;;;;;;;;5084310;28;19927;-76
2023/05/14 03:45:05;;;;;;;;;;;;;;;;;;5089022;28;19927;-76
2023/05/14 03:47:33;;;;;;;;;;;;;;;;;;5077111;28;19931;-76
2023/05/14 03:50:01;;;;;;;;;;;;;;;;;;5084196;28;19920;-76
2023/05/14 03:52:28;;;;;;;;;;;;;;;;;;5082145;28;19927;-77
2023/05/14 03:54:56;;;;;;;;;;;;;;;;;;5092809;28;19924;-76
2023/05/14 03:57:23;;;;;;;;;;;;;;;;;;5081151;28;19947;-76
2023/05/14 03:59:51;;;;;;;;;;;;;;;;;;5075930;28;19928;-76
2023/05/14 04:02:19;;;;;;;;;;;;;;;;;;5082151;28;19927;-76
2023/05/14 04:04:46;;;;;;;;;;;;;;;;;;5072296;28;19928;-77
2023/05/14 04:07:20;;;;;;;;;;;;;;;;;;5087481;28;19924;-76
2023/05/14 04:09:47;;;;;;;;;;;;;;;;;;5083595;28;19920;-76
2023/05/14 04:12:15;;;;;;;;;;;;;;;;;;5080741;28;19921;-76
2023/05/14 04:14:42;;;;;;;;;;;;;;;;;;5072386;28;19920;-76
2023/05/14 04:17:10;;;;;;;;;;;;;;;;;;5079973;28;20284;-77
2023/05/14 04:19:38;;;;;;;;;;;;;;;;;;5075245;28;19927;-77
2023/05/14 04:22:05;;;;;;;;;;;;;;;;;;5079112;28;19924;-76
2023/05/14 04:24:33;;;;;;;;;;;;;;;;;;5081773;28;20295;-78
2023/05/14 04:27:00;;;;;;;;;;;;;;;;;;5074014;28;19920;-77
2023/05/14 04:29:28;;;;;;;;;;;;;;;;;;5085441;28;19921;-76
2023/05/14 04:31:55;;;;;;;;;;;;;;;;;;5081710;28;19927;-76
2023/05/14 04:34:23;;;;;;;;;;;;;;;;;;5084922;28;19927;-77
2023/05/14 04:36:51;;;;;;;;;;;;;;;;;;5085995;28;19924;-75
2023/05/14 04:39:18;;;;;;;;;;;;;;;;;;5081145;28;20361;-77
2023/05/14 04:41:46;;;;;;;;;;;;;;;;;;5088803;28;19920;-77
2023/05/14 04:44:13;;;;;;;;;;;;;;;;;;5077677;28;19920;-77
2023/05/14 04:46:46;;;;;;;;;;;;;;;;;;5078737;28;19924;-77
2023/05/14 04:49:13;;;;;;;;;;;;;;;;;;5073326;28;20296;-76
2023/05/14 04:51:41;;;;;;;;;;;;;;;;;;5071846;28;19920;-76
2023/05/14 04:54:08;;;;;;;;;;;;;;;;;;5075518;28;19927;-76
2023/05/14 04:56:36;;;;;;;;;;;;;;;;;;5083945;28;19931;-76
2023/05/14 04:59:03;;;;;;;;;;;;;;;;;;5078760;28;20277;-76
2023/05/14 05:01:31;;;;;;;;;;;;;;;;;;5089097;28;19920;-77
2023/05/14 05:03:59;;;;;;;;;;;;;;;;;;5078503;28;20288;-77
2023/05/14 05:06:26;;;;;;;;;;;;;;;;;;5084773;28;19921;-76
2023/05/14 05:08:54;;;;;;;;;;;;;;;;;;5090351;28;19920;-77
2023/05/14 05:11:21;;;;;;;;;;;;;;;;;;5086964;28;19920;-77
2023/05/14 05:13:49;;;;;;;;;;;;;;;;;;5089273;28;19927;-78
2023/05/14 05:16:16;;;;;;;;;;;;;;;;;;5090712;28;19924;-78
2023/05/14 05:18:44;;;;;;;;;;;;;;;;;;5076464;28;19920;-78
2023/05/14 05:21:17;;;;;;;;;;;;;;;;;;5086626;28;19991;-79
2023/05/14 05:23:44;;;;;;;;;;;;;;;;;;5075861;28;20272;-76
2023/05/14 05:26:11;;;;;;;;;;;;;;;;;;5078682;28;19921;-78
2023/05/14 05:28:39;;;;;;;;;;;;;;;;;;5089224;28;19920;-78
2023/05/14 05:31:06;;;;;;;;;;;;;;;;;;5076781;28;19942;-77
2023/05/14 05:33:39;;;;;;;;;;;;;;;;;;5081828;28;20265;-78
2023/05/14 05:36:07;;;;;;;;;;;;;;;;;;5083649;28;20301;-77
2023/05/14 05:38:35;;;;;;;;;;;;;;;;;;5082141;28;19924;-77
2023/05/14 05:41:02;;;;;;;;;;;;;;;;;;5086372;28;19919;-77
2023/05/14 05:43:35;;;;;;;;;;;;;;;;;;5084262;28;19927;-77
2023/05/14 05:46:03;;;;;;;;;;;;;;;;;;5086998;28;20444;-76
2023/05/14 05:48:30;;;;;;;;;;;;;;;;;;5090570;28;19927;-75
2023/05/14 05:50:58;;;;;;;;;;;;;;;;;;5093814;28;19923;-74
2023/05/14 05:53:25;;;;;;;;;;;;;;;;;;5088218;28;19974;-75
2023/05/14 05:55:53;;;;;;;;;;;;;;;;;;5091673;28;19935;-76
2023/05/14 05:58:20;;;;;;;;;;;;;;;;;;5089951;28;19920;-77
2023/05/14 06:00:49;;;;;;;;;;;;;;;;;;5085474;28;19948;-78
2023/05/14 06:03:16;;;;;;;;;;;;;;;;;;5081316;28;19935;-77
2023/05/14 06:05:45;;;;;;;;;;;;;;;;;;5093571;28;20284;-77
2023/05/14 06:08:12;;;;;;;;;;;;;;;;;;5091248;28;19927;-77
2023/05/14 06:10:40;;;;;;;;;;;;;;;;;;5090375;28;20394;-77
2023/05/14 06:13:08;;;;;;;;;;;;;;;;;;5088907;28;20284;-77
2023/05/14 06:15:35;;;;;;;;;;;;;;;;;;5093756;28;20273;-79
2023/05/14 06:18:03;;;;;;;;;;;;;;;;;;5084345;28;19928;-80
2023/05/14 06:20:35;;;;;;;;;;;;;;;;;;5083452;28;19924;-80
2023/05/14 06:23:07;;;;;;;;;;;;;;;;;;5083254;28;19921;-80
2023/05/14 06:25:35;;;;;;;;;;;;;;;;;;5080118;28;19954;-80
2023/05/14 06:28:08;;;;;;;;;;;;;;;;;;5082809;28;19920;-79
2023/05/14 06:30:35;;;;;;;;;;;;;;;;;;5081953;28;19962;-80
2023/05/14 06:33:08;;;;;;;;;;;;;;;;;;5082102;28;19920;-80
2023/05/14 06:35:35;;;;;;;;;;;;;;;;;;5082285;28;19934;-79
2023/05/14 06:38:08;;;;;;;;;;;;;;;;;;5079403;28;20295;-80
2023/05/14 06:40:35;;;;;;;;;;;;;;;;;;5087515;28;19928;-80
2023/05/14 06:43:08;;;;;;;;;;;;;;;;;;5082627;28;19931;-80
2023/05/14 06:45:40;;;;;;;;;;;;;;;;;;5078903;28;19924;-80
2023/05/14 06:48:08;;;;;;;;;;;;;;;;;;5079860;28;19931;-80
2023/05/14 06:50:36;;;;;;;;;;;;;;;;;;5076991;28;20348;-81
2023/05/14 06:53:08;;;;;;;;;;;;;;;;;;5086672;28;19920;-81
2023/05/14 06:55:36;;;;;;;;;;;;;;;;;;5078593;28;19927;-82
2023/05/14 06:58:08;;;;;;;;;;;;;;;;;;5079970;28;19924;-81
2023/05/14 07:00:36;;;;;;;;;;;;;;;;;;5079878;28;19931;-80
2023/05/14 07:03:09;;;;;;;;;;;;;;;;;;5080591;28;19927;-81
2023/05/14 07:05:36;;;;;;;;;;;;;;;;;;5078946;28;19924;-79
2023/05/14 07:08:03;;;;;;;;;;;;;;;;;;5077112;28;19984;-80
2023/05/14 07:10:36;;;;;;;;;;;;;;;;;;5079580;28;19927;-82
2023/05/14 07:13:03;;;;;;;;;;;;;;;;;;5081568;28;19920;-80
2023/05/14 07:15:31;;;;;;;;;;;;;;;;;;5081811;28;19947;-79
2023/05/14 07:18:04;;;;;;;;;;;;;;;;;;5076061;28;19994;-79
2023/05/14 07:20:31;;;;;;;;;;;;;;;;;;5078048;28;19924;-80
2023/05/14 07:22:59;;;;;;;;;;;;;;;;;;5080137;28;20372;-80
2023/05/14 07:25:32;;;;;;;;;;;;;;;;;;5086598;28;19924;-80
2023/05/14 07:27:59;;;;;;;;;;;;;;;;;;5078250;28;20280;-80
2023/05/14 07:30:27;;;;;;;;;;;;;;;;;;5081369;28;19938;-80
2023/05/14 07:32:59;;;;;;;;;;;;;;;;;;5081897;28;19931;-79
2023/05/14 07:35:32;;;;;;;;;;;;;;;;;;5079466;28;19936;-79
2023/05/14 07:37:59;;;;;;;;;;;;;;;;;;5077103;28;19928;-80
2023/05/14 07:40:27;;;;;;;;;;;;;;;;;;5077239;28;20289;-80
2023/05/14 07:42:54;;;;;;;;;;;;;;;;;;5085290;28;19920;-79
2023/05/14 07:45:22;;;;;;;;;;;;;;;;;;5076926;28;19931;-80
2023/05/14 07:47:54;;;;;;;;;;;;;;;;;;5079835;28;19927;-80
2023/05/14 07:50:27;;;;;;;;;;;;;;;;;;5078329;28;19925;-80
2023/05/14 07:52:54;;;;;;;;;;;;;;;;;;5086839;28;19928;-81
2023/05/14 07:55:22;;;;;;;;;;;;;;;;;;5079638;28;19924;-80
2023/05/14 07:57:49;;;;;;;;;;;;;;;;;;5086977;28;19920;-81
2023/05/14 08:00:17;;;;;;;;;;;;;;;;;;5079561;28;19972;-80
2023/05/14 08:02:44;;;;;;;;;;;;;;;;;;5080783;28;19935;-81
2023/05/14 08:05:17;;;;;;;;;;;;;;;;;;5078452;28;19924;-80
2023/05/14 08:07:49;;;;;;;;;;;;;;;;;;5085629;28;19939;-81
2023/05/14 08:10:17;;;;;;;;;;;;;;;;;;5080627;28;19931;-83
2023/05/14 08:12:44;;;;;;;;;;;;;;;;;;5079706;28;20273;-80
2023/05/14 08:15:12;;;;;;;;;;;;;;;;;;5078350;28;19924;-81
2023/05/14 08:17:39;;;;;;;;;;;;;;;;;;5077432;28;20288;-80
2023/05/14 08:20:12;;;;;;;;;;;;;;;;;;5077783;28;20636;-81
2023/05/14 08:22:39;;;;;;;;;;;;;;;;;;5079659;28;20394;-79
2023/05/14 08:25:07;;;;;;;;;;;;;;;;;;5079092;28;20261;-80
2023/05/14 08:27:34;;;;;;;;;;;;;;;;;;5077288;28;19921;-80
2023/05/14 08:30:07;;;;;;;;;;;;;;;;;;5073050;28;19924;-82
2023/05/14 08:32:39;;;;;;;;;;;;;;;;;;5066013;28;19928;-80
2023/05/14 08:35:12;;;;;;;;;;;;;;;;;;5062569;28;19935;-80
2023/05/14 08:37:44;;;;;;;;;;;;;;;;;;5060783;28;19928;-81
2023/05/14 08:40:17;;;;;;;;;;;;;;;;;;5063433;28;19928;-81
2023/05/14 08:42:46;;;;;;;;;;;;;;;;;;5063359;28;19939;-78
2023/05/14 08:45:19;;;;;;;;;;;;;;;;;;5065925;28;19927;-80
2023/05/14 08:47:47;;;;;;;;;;;;;;;;;;5065406;28;19928;-80
2023/05/14 08:50:15;;;;;;;;;;;;;;;;;;5064276;28;19931;-80
2023/05/14 08:52:47;;;;;;;;;;;;;;;;;;5066536;28;21744;-81
2023/05/14 08:55:15;;;;;;;;;;;;;;;;;;5067693;28;19938;-80
2023/05/14 08:57:43;;;;;;;;;;;;;;;;;;5060825;28;19932;-79
2023/05/14 09:00:11;;;;;;;;;;;;;;;;;;5067089;28;19939;-80
2023/05/14 09:02:38;;;;;;;;;;;;;;;;;;5062901;28;19939;-80
2023/05/14 09:05:11;;;;;;;;;;;;;;;;;;5062656;28;19928;-81
2023/05/14 09:07:44;;;;;;;;;;;;;;;;;;5058903;28;19928;-79
2023/05/14 09:10:11;;;;;;;;;;;;;;;;;;5064261;28;19928;-80
2023/05/14 09:12:39;;;;;;;;;;;;;;;;;;5066113;28;21397;-81
2023/05/14 09:15:06;;;;;;;;;;;;;;;;;;5062507;28;19928;-81
2023/05/14 09:17:34;;;;;;;;;;;;;;;;;;5064749;28;19928;-81
2023/05/14 09:20:06;;;;;;;;;;;;;;;;;;5066136;28;20636;-80
2023/05/14 09:22:34;;;;;;;;;;;;;;;;;;5054095;28;19931;-82
2023/05/14 09:25:02;;;;;;;;;;;;;;;;;;5065786;28;19939;-81
2023/05/14 09:27:35;;;;;;;;;;;;;;;;;;5066168;28;20573;-79
2023/05/14 09:30:05;;;;;;;;;;;;;;;;;;5081637;27;19931;-85
2023/05/14 09:32:32;;;;;;;;;;;;;;;;;;5060307;28;20730;-83
2023/05/14 09:35:00;;;;;;;;;;;;;;;;;;5082001;28;19928;-80
2023/05/14 09:37:33;;;;;;;;;;;;;;;;;;5084088;28;19924;-81
2023/05/14 09:40:05;;;;;;;;;;;;;;;;;;5078945;28;19927;-80
2023/05/14 09:42:33;;;;;;;;;;;;;;;;;;5080176;28;19936;-80
2023/05/14 09:45:05;;;;;;;;;;;;;;;;;;5079174;28;19931;-81
2023/05/14 09:47:33;;;;;;;;;;;;;;;;;;5080408;28;19928;-82
2023/05/14 09:50:00;;;;;;;;;;;;;;;;;;5090244;28;19920;-80
2023/05/14 09:52:27;;;;;;;;;;;;;;;;;;5088459;28;19904;-82
2023/05/14 09:54:55;;;;;;;;;;;;;;;;;;5087195;28;19928;-83
2023/05/14 09:57:22;;;;;;;;;;;;;;;;;;5084406;28;19927;-83
2023/05/14 09:59:50;;;;;;;;;;;;;;;;;;5085255;28;19920;-84
2023/05/14 10:02:17;;;;;;;;;;;;;;;;;;5081261;28;19935;-83
2023/05/14 10:04:45;;;;;;;;;;;;;;;;;;5085052;28;19927;-84
2023/05/14 10:07:12;;;;;;;;;;;;;;;;;;5082098;28;20355;-85
2023/05/14 10:09:40;;;;;;;;;;;;;;;;;;5082412;28;19920;-85
2023/05/14 10:12:13;;;;;;;;;;;;;;;;;;5083301;28;19928;-82
2023/05/14 10:14:45;;;;;;;;;;;;;;;;;;5096810;28;19920;-82
2023/05/14 10:17:17;;;;;;;;;;;;;;;;;;5082550;28;19931;-83
2023/05/14 10:19:44;;;;;;;;;;;;;;;;;;5084567;28;19920;-85
2023/05/14 10:22:18;;;;;;;;;;;;;;;;;;5091207;28;19920;-83
2023/05/14 10:24:46;;;;;;;;;;;;;;;;;;5076771;28;19943;-83
2023/05/14 10:27:14;;;;;;;;;;;;;;;;;;5083557;28;19931;-82
2023/05/14 10:29:41;;;;;;;;;;;;;;;;;;5082200;28;20281;-84
2023/05/14 10:32:15;;;;;;;;;;;;;;;;;;5078536;28;19924;-83
2023/05/14 10:34:42;;;;;;;;;;;;;;;;;;5080262;28;19927;-81
2023/05/14 10:37:10;;;;;;;;;;;;;;;;;;5079740;28;19924;-84
2023/05/14 10:39:37;;;;;;;;;;;;;;;;;;5081638;28;19921;-82
2023/05/14 10:42:05;;;;;;;;;;;;;;;;;;5082841;28;20395;-83
2023/05/14 10:44:32;;;;;;;;;;;;;;;;;;5086179;28;19928;-83
2023/05/14 10:47:00;;;;;;;;;;;;;;;;;;5080935;28;20388;-84
2023/05/14 10:49:27;;;;;;;;;;;;;;;;;;5080897;28;20285;-83
2023/05/14 10:52:00;;;;;;;;;;;;;;;;;;5080789;28;19947;-83
2023/05/14 10:54:27;;;;;;;;;;;;;;;;;;5078216;28;20292;-86
2023/05/14 10:57:00;;;;;;;;;;;;;;;;;;5085213;28;19925;-81
2023/05/14 10:59:28;;;;;;;;;;;;;;;;;;5077676;28;19950;-82
2023/05/14 11:02:00;;;;;;;;;;;;;;;;;;5076730;28;19935;-81
2023/05/14 11:04:27;;;;;;;;;;;;;;;;;;5078567;28;19920;-82
2023/05/14 11:07:01;;;;;;;;;;;;;;;;;;5078651;28;19929;-82
2023/05/14 11:09:28;;;;;;;;;;;;;;;;;;5078610;28;20373;-83
2023/05/14 11:11:56;;;;;;;;;;;;;;;;;;5079165;28;19926;-82
2023/05/14 11:14:23;;;;;;;;;;;;;;;;;;5079986;28;19920;-83
2023/05/14 11:16:51;;;;;;;;;;;;;;;;;;5076838;28;19927;-81
2023/05/14 11:19:20;;;;;;;;;;;;;;;;;;5079996;28;19920;-80
2023/05/14 11:21:52;;;;;;;;;;;;;;;;;;5078682;28;20276;-81
2023/05/14 11:24:20;;;;;;;;;;;;;;;;;;5081725;28;20336;-80
2023/05/14 11:26:54;;;;;;;;;;;;;;;;;;5079166;28;19926;-80
2023/05/14 11:29:22;;;;;;;;;;;;;;;;;;5077804;28;19921;-79
2023/05/14 11:31:54;;;;;;;;;;;;;;;;;;5079641;28;19924;-79
2023/05/14 11:34:26;;;;;;;;;;;;;;;;;;5078280;28;19920;-81
2023/05/14 11:36:54;;;;;;;;;;;;;;;;;;5080110;28;19931;-81
2023/05/14 11:39:26;;;;;;;;;;;;;;;;;;5081465;28;19924;-80
2023/05/14 11:41:59;;;;;;;;;;;;;;;;;;5079987;28;19924;-79
2023/05/14 11:44:31;;;;;;;;;;;;;;;;;;5077539;28;19931;-80
2023/05/14 11:47:00;;;;;;;;;;;;;;;;;;5086177;28;19924;-80
2023/05/14 11:49:27;;;;;;;;;;;;;;;;;;5079702;28;19931;-80
2023/05/14 11:52:00;;;;;;;;;;;;;;;;;;5078403;28;20136;-81
2023/05/14 11:54:27;;;;;;;;;;;;;;;;;;5080765;28;19966;-81
2023/05/14 11:56:55;;;;;;;;;;;;;;;;;;5077757;28;20372;-79
2023/05/14 11:59:23;;;;;;;;;;;;;;;;;;5080451;28;19943;-80
2023/05/14 12:01:52;;;;;;;;;;;;;;;;;;5078698;28;19927;-82
2023/05/14 12:04:24;;;;;;;;;;;;;;;;;;5078734;28;19924;-80
2023/05/14 12:06:52;;;;;;;;;;;;;;;;;;5079975;28;19924;-80
2023/05/14 12:09:19;;;;;;;;;;;;;;;;;;5077840;28;20312;-80
2023/05/14 12:11:47;;;;;;;;;;;;;;;;;;5074393;28;20399;-80
2023/05/14 12:14:19;;;;;;;;;;;;;;;;;;5075444;28;19928;-81
2023/05/14 12:16:52;;;;;;;;;;;;;;;;;;5077098;28;19927;-80
2023/05/14 12:19:24;;;;;;;;;;;;;;;;;;5078997;28;20293;-81
2023/05/14 12:21:52;;;;;;;;;;;;;;;;;;5080392;28;19983;-82
2023/05/14 12:24:24;;;;;;;;;;;;;;;;;;5084494;28;20027;-81
2023/05/14 12:26:57;;;;;;;;;;;;;;;;;;5093510;28;19921;-79
2023/05/14 12:29:29;;;;;;;;;;;;;;;;;;5076902;28;19931;-80
2023/05/14 12:31:57;;;;;;;;;;;;;;;;;;5080861;28;20388;-80
2023/05/14 12:34:24;;;;;;;;;;;;;;;;;;5085904;28;19931;-79
2023/05/14 12:36:52;;;;;;;;;;;;;;;;;;5078236;28;19928;-80
2023/05/14 12:39:24;;;;;;;;;;;;;;;;;;5096276;28;19961;-81
2023/05/14 12:41:57;;;;;;;;;;;;;;;;;;5085289;28;20315;-82
2023/05/14 12:44:24;;;;;;;;;;;;;;;;;;5063913;28;19935;-81
2023/05/14 12:46:52;;;;;;;;;;;;;;;;;;5058630;28;20665;-81
2023/05/14 12:49:19;;;;;;;;;;;;;;;;;;5059474;28;19928;-82
2023/05/14 12:51:52;;;;;;;;;;;;;;;;;;5066510;28;19928;-80
2023/05/14 12:54:25;;;;;;;;;;;;;;;;;;5062915;28;19931;-82
2023/05/14 12:56:57;;;;;;;;;;;;;;;;;;5056838;28;20467;-81
2023/05/14 12:59:25;;;;;;;;;;;;;;;;;;5055299;28;21156;-82
2023/05/14 13:01:57;;;;;;;;;;;;;;;;;;5059640;28;19986;-81
2023/05/14 13:04:30;;;;;;;;;;;;;;;;;;5070292;28;20636;-82
2023/05/14 13:06:57;;;;;;;;;;;;;;;;;;5064317;28;19928;-81
2023/05/14 13:09:29;;;;;;;;;;;;;;;;;;5063487;28;19927;-81
2023/05/14 13:11:57;;;;;;;;;;;;;;;;;;5062515;28;19927;-80
2023/05/14 13:14:25;;;;;;;;;;;;;;;;;;5064850;28;19935;-80
2023/05/14 13:16:52;;;;;;;;;;;;;;;;;;5063155;28;19931;-81
2023/05/14 13:19:20;;;;;;;;;;;;;;;;;;5068256;28;19928;-79
2023/05/14 13:21:52;;;;;;;;;;;;;;;;;;5063572;28;19928;-79
2023/05/14 13:24:25;;;;;;;;;;;;;;;;;;5066710;28;19928;-80
2023/05/14 13:26:53;;;;;;;;;;;;;;;;;;5065626;28;19927;-79
2023/05/14 13:29:20;;;;;;;;;;;;;;;;;;5066356;28;19928;-80
2023/05/14 13:31:48;;;;;;;;;;;;;;;;;;5060498;28;19928;-79
2023/05/14 13:34:20;;;;;;;;;;;;;;;;;;5062374;28;19928;-79
2023/05/14 13:36:48;;;;;;;;;;;;;;;;;;5063738;28;20386;-80
2023/05/14 13:39:16;;;;;;;;;;;;;;;;;;5065436;28;19939;-83
2023/05/14 13:41:49;;;;;;;;;;;;;;;;;;5065667;28;19935;-79
2023/05/14 13:44:17;;;;;;;;;;;;;;;;;;5064397;28;19935;-81
2023/05/14 13:46:44;;;;;;;;;;;;;;;;;;5052063;28;19928;-80
2023/05/14 13:49:12;;;;;;;;;;;;;;;;;;5059501;28;19928;-80
2023/05/14 13:51:39;;;;;;;;;;;;;;;;;;5080630;28;19928;-79
2023/05/14 13:54:07;;;;;;;;;;;;;;;;;;5076943;28;19926;-79
2023/05/14 13:56:40;;;;;;;;;;;;;;;;;;5074053;28;19927;-80
2023/05/14 13:59:12;;;;;;;;;;;;;;;;;;5062908;28;19927;-79
2023/05/14 14:01:41;;;;;;;;;;;;;;;;;;5071756;28;19931;-79
2023/05/14 14:04:09;;;;;;;;;;;;;;;;;;5069407;28;19928;-79
2023/05/14 14:06:36;;;;;;;;;;;;;;;;;;5063586;28;19928;-80
2023/05/14 14:09:04;;;;;;;;;;;;;;;;;;5066644;28;19939;-79
2023/05/14 14:11:37;;;;;;;;;;;;;;;;;;5063303;28;19967;-81
2023/05/14 14:14:04;;;;;;;;;;;;;;;;;;5062206;28;19929;-80
2023/05/14 14:16:32;;;;;;;;;;;;;;;;;;5076262;28;20311;-81
2023/05/14 14:19:05;;;;;;;;;;;;;;;;;;5062745;28;19928;-80
2023/05/14 14:21:32;;;;;;;;;;;;;;;;;;5061361;28;19928;-82
2023/05/14 14:24:05;;;;;;;;;;;;;;;;;;5080194;28;20360;-79
2023/05/14 14:26:33;;;;;;;;;;;;;;;;;;5083317;28;19928;-81
2023/05/14 14:29:01;;;;;;;;;;;;;;;;;;5066400;28;19924;-81
2023/05/14 14:31:34;;;;;;;;;;;;;;;;;;5067884;28;19928;-81
2023/05/14 14:34:03;;;;;;;;;;;;;;;;;;5069455;28;19928;-81
2023/05/14 14:36:31;;;;;;;;;;;;;;;;;;5070940;28;19924;-80
2023/05/14 14:38:58;;;;;;;;;;;;;;;;;;5064496;28;19935;-80
2023/05/14 14:41:31;;;;;;;;;;;;;;;;;;5066814;28;19939;-80
2023/05/14 14:43:58;;;;;;;;;;;;;;;;;;5067219;28;19928;-81
2023/05/14 14:46:26;;;;;;;;;;;;;;;;;;5081442;28;19942;-82
2023/05/14 14:48:54;;;;;;;;;;;;;;;;;;5071358;28;19928;-81
2023/05/14 14:51:23;;;;;;;;;;;;;;;;;;5068128;28;19927;-80
2023/05/14 14:53:56;;;;;;;;;;;;;;;;;;5075657;28;19920;-81
2023/05/14 14:56:23;;;;;;;;;;;;;;;;;;5062616;28;19928;-79
2023/05/14 14:58:51;;;;;;;;;;;;;;;;;;5076635;28;19920;-78
2023/05/14 15:01:18;;;;;;;;;;;;;;;;;;5092265;28;19921;-79
2023/05/14 15:03:51;;;;;;;;;;;;;;;;;;5076228;28;19924;-78
2023/05/14 15:06:18;;;;;;;;;;;;;;;;;;5093112;28;19931;-80
2023/05/14 15:09:00;;;;;;;;;;;;;;;;;;5078076;28;19925;-80
2023/05/14 15:11:33;;;;;;;;;;;;;;;;;;5060664;28;21153;-79
2023/05/14 15:14:05;;;;;;;;;;;;;;;;;;5063587;28;20383;-79
2023/05/14 15:16:38;;;;;;;;;;;;;;;;;;5063843;28;20399;-79
2023/05/14 15:19:05;;;;;;;;;;;;;;;;;;5067719;28;19928;-80
2023/05/14 15:21:38;;;;;;;;;;;;;;;;;;5059094;28;20616;-81
2023/05/14 15:24:10;;;;;;;;;;;;;;;;;;5058700;28;19928;-80
2023/05/14 15:26:43;;;;;;;;;;;;;;;;;;5063327;28;19935;-79
2023/05/14 15:29:16;;;;;;;;;;;;;;;;;;5068354;28;19924;-79
2023/05/14 15:31:48;;;;;;;;;;;;;;;;;;5064048;28;19928;-79
2023/05/14 15:34:16;;;;;;;;;;;;;;;;;;5065232;28;19935;-79
2023/05/14 15:36:43;;;;;;;;;;;;;;;;;;5060014;28;19928;-80
2023/05/14 15:39:11;;;;;;;;;;;;;;;;;;5060628;28;19928;-81
2023/05/14 15:41:44;;;;;;;;;;;;;;;;;;5058884;28;19928;-79
2023/05/14 15:44:16;;;;;;;;;;;;;;;;;;5060565;28;19947;-79
2023/05/14 15:46:49;;;;;;;;;;;;;;;;;;5058478;28;19928;-79
2023/05/14 15:49:21;;;;;;;;;;;;;;;;;;5065326;28;19935;-78
2023/05/14 15:51:49;;;;;;;;;;;;;;;;;;5064586;28;20368;-79
2023/05/14 15:54:21;;;;;;;;;;;;;;;;;;5060728;28;19928;-78
2023/05/14 15:56:54;;;;;;;;;;;;;;;;;;5066720;28;19928;-78
2023/05/14 15:59:23;;;;;;;;;;;;;;;;;;5062019;28;19928;-79
2023/05/14 16:01:50;;;;;;;;;;;;;;;;;;5064974;28;20447;-79
2023/05/14 16:04:18;;;;;;;;;;;;;;;;;;5061710;28;20691;-79
2023/05/14 16:06:46;;;;;;;;;;;;;;;;;;5063056;28;19935;-79
2023/05/14 16:09:13;;;;;;;;;;;;;;;;;;5064058;28;19924;-79
2023/05/14 16:11:41;;;;;;;;;;;;;;;;;;5061082;28;19928;-79
2023/05/14 16:14:08;;;;;;;;;;;;;;;;;;5069440;28;19928;-80
2023/05/14 16:16:36;;;;;;;;;;;;;;;;;;5064064;28;19935;-78
2023/05/14 16:19:03;;;;;;;;;;;;;;;;;;5062833;28;19927;-79
2023/05/14 16:21:33;;;;;;;;;;;;;;;;;;5056136;28;21400;-80
2023/05/14 16:24:05;;;;;;;;;;;;;;;;;;5065372;28;19928;-79
2023/05/14 16:26:33;;;;;;;;;;;;;;;;;;5065566;28;19939;-79
2023/05/14 16:29:01;;;;;;;;;;;;;;;;;;5057140;28;19932;-79
2023/05/14 16:31:33;;;;;;;;;;;;;;;;;;5057370;28;20478;-79
2023/05/14 16:34:06;;;;;;;;;;;;;;;;;;5060454;28;19928;-80
2023/05/14 16:36:33;;;;;;;;;;;;;;;;;;5062323;28;19928;-78
2023/05/14 16:39:01;;;;;;;;;;;;;;;;;;5061132;28;19924;-79
2023/05/14 16:41:33;;;;;;;;;;;;;;;;;;5058206;28;19928;-85
2023/05/14 16:44:01;;;;;;;;;;;;;;;;;;5060316;28;19928;-79
2023/05/14 16:46:33;;;;;;;;;;;;;;;;;;5059713;28;19928;-80
2023/05/14 16:49:02;;;;;;;;;;;;;;;;;;5058017;28;19928;-78
2023/05/14 16:51:29;;;;;;;;;;;;;;;;;;5065571;28;19934;-78
2023/05/14 16:53:57;;;;;;;;;;;;;;;;;;5063126;28;19939;-79
2023/05/14 16:56:25;;;;;;;;;;;;;;;;;;5069602;28;19924;-79